Time;durP1;ratioP1;P1;durP2;ratioP2;P2;SDS_P1;SDS_P2;PMS_P1;PMS_P2;Temp;Humidity;BMP_temperature;BMP_pressure;BME280_temperature;BME280_humidity;BME280_pressure;Samples;Min_cycle;Max_cycle;Signal;HPM_P1;HPM_P2
2022/04/29 00:01:22;;;;;;;26.00;12.65;;;10.80;37.60;;;;;;4996036;28;20472;-79
2022/04/29 00:03:48;;;;;;;30.00;12.87;;;10.70;38.10;;;;;;4983554;28;20485;-76
2022/04/29 00:06:14;;;;;;;28.77;13.27;;;10.60;39.30;;;;;;4999057;28;20771;-77
2022/04/29 00:08:40;;;;;;;27.90;13.90;;;10.40;40.30;;;;;;5000609;28;20419;-77
2022/04/29 00:11:06;;;;;;;24.27;13.87;;;10.20;42.10;;;;;;5005172;28;20396;-76
2022/04/29 00:13:32;;;;;;;26.42;13.60;;;10.20;42.20;;;;;;4995731;28;20412;-76
2022/04/29 00:15:59;;;;;;;27.75;14.57;;;9.90;43.90;;;;;;4993772;28;20453;-79
2022/04/29 00:18:26;;;;;;;25.75;13.98;;;10.30;43.10;;;;;;4995540;28;20418;-76
2022/04/29 00:20:51;;;;;;;30.23;13.80;;;10.50;40.80;;;;;;4999810;28;20411;-78
2022/04/29 00:23:18;;;;;;;22.90;13.80;;;10.40;40.30;;;;;;4997130;28;20442;-76
2022/04/29 00:25:44;;;;;;;25.83;14.13;;;10.30;40.60;;;;;;5005600;28;20402;-76
2022/04/29 00:28:10;;;;;;;26.33;14.60;;;10.20;41.00;;;;;;5002613;28;20418;-77
2022/04/29 00:30:36;;;;;;;30.70;14.63;;;10.10;42.50;;;;;;4993193;28;20744;-77
2022/04/29 00:33:02;;;;;;;28.40;15.00;;;9.90;43.80;;;;;;4994670;28;20410;-76
2022/04/29 00:35:28;;;;;;;27.05;14.55;;;10.00;43.60;;;;;;4994928;28;20420;-76
2022/04/29 00:37:55;;;;;;;27.02;15.65;;;10.00;43.80;;;;;;4995550;28;20405;-76
2022/04/29 00:40:23;;;;;;;28.02;14.70;;;9.90;43.90;;;;;;5001401;28;20426;-78
2022/04/29 00:42:49;;;;;;;30.67;14.32;;;9.60;46.30;;;;;;4994037;28;20415;-76
2022/04/29 00:45:17;;;;;;;26.38;15.18;;;9.70;46.50;;;;;;5002999;28;20415;-77
2022/04/29 00:47:44;;;;;;;26.50;15.03;;;9.80;45.50;;;;;;5001106;28;20893;-76
2022/04/29 00:50:12;;;;;;;30.27;15.65;;;9.80;46.50;;;;;;4998491;28;20421;-78
2022/04/29 00:52:41;;;;;;;26.00;15.10;;;9.90;45.80;;;;;;4993251;28;20493;-77
2022/04/29 00:55:09;;;;;;;23.63;15.73;;;9.90;46.30;;;;;;4994715;28;20403;-76
2022/04/29 00:57:47;;;;;;;29.77;14.60;;;9.80;47.00;;;;;;4986137;28;20398;-77
2022/04/29 01:00:14;;;;;;;29.10;14.98;;;9.80;47.20;;;;;;4997346;28;20402;-76
2022/04/29 01:02:42;;;;;;;29.25;15.00;;;9.80;47.90;;;;;;4986910;28;20438;-77
2022/04/29 01:05:13;;;;;;;30.05;15.88;;;9.70;48.70;;;;;;4994659;28;20402;-76
2022/04/29 01:07:40;;;;;;;30.65;15.68;;;9.50;50.00;;;;;;4994743;28;20430;-76
2022/04/29 01:10:08;;;;;;;28.75;15.60;;;9.40;51.80;;;;;;4995803;28;20405;-79
2022/04/29 01:12:36;;;;;;;26.02;15.00;;;9.20;52.80;;;;;;4991275;28;20410;-78
2022/04/29 01:15:07;;;;;;;27.52;14.88;;;9.20;52.50;;;;;;4987179;28;20441;-77
2022/04/29 01:17:34;;;;;;;26.65;15.30;;;9.00;54.70;;;;;;4994333;28;20428;-78
2022/04/29 01:20:02;;;;;;;30.35;16.17;;;8.90;55.20;;;;;;4993832;28;20455;-77
2022/04/29 01:22:29;;;;;;;31.27;16.10;;;8.90;55.70;;;;;;4994308;28;20503;-76
2022/04/29 01:24:54;;;;;;;30.77;15.98;;;9.10;54.10;;;;;;4992278;28;20864;-77
2022/04/29 01:27:20;;;;;;;31.67;15.57;;;9.50;50.30;;;;;;4984440;28;20510;-78
2022/04/29 01:30:16;;;;;;;29.75;15.68;;;9.50;49.50;;;;;;4992633;28;20771;-76
2022/04/29 01:32:43;;;;;;;29.02;15.60;;;9.60;48.60;;;;;;4990416;28;20771;-77
2022/04/29 01:35:10;;;;;;;25.70;15.18;;;9.60;48.10;;;;;;4993995;28;20405;-78
2022/04/29 01:37:36;;;;;;;27.83;15.70;;;9.60;49.00;;;;;;4994941;28;20416;-78
2022/04/29 01:40:03;;;;;;;30.17;16.15;;;9.50;50.00;;;;;;4997709;28;20429;-76
2022/04/29 01:42:29;;;;;;;27.77;16.03;;;9.60;49.90;;;;;;4994258;28;20420;-78
2022/04/29 01:44:54;;;;;;;29.20;16.40;;;9.60;49.60;;;;;;4992773;28;20807;-78
2022/04/29 01:47:20;;;;;;;26.07;16.17;;;9.50;50.20;;;;;;4991037;28;20494;-77
2022/04/29 01:49:46;;;;;;;25.30;16.20;;;9.50;50.20;;;;;;4986281;28;20414;-78
2022/04/29 01:52:11;;;;;;;31.10;16.42;;;9.40;50.80;;;;;;4991685;28;20501;-77
2022/04/29 01:54:38;;;;;;;28.55;16.90;;;9.20;53.10;;;;;;4989761;28;20422;-77
2022/04/29 01:57:07;;;;;;;30.67;17.10;;;9.20;54.20;;;;;;4992481;28;20391;-76
2022/04/29 01:59:34;;;;;;;27.30;16.52;;;9.30;52.50;;;;;;4995000;28;20406;-77
2022/04/29 02:02:00;;;;;;;29.17;15.70;;;9.60;50.70;;;;;;4990612;28;20406;-78
2022/04/29 02:04:26;;;;;;;28.30;16.52;;;9.70;49.40;;;;;;5001874;28;20394;-75
2022/04/29 02:06:51;;;;;;;29.08;16.50;;;9.70;48.60;;;;;;5001234;28;20413;-80
2022/04/29 02:09:17;;;;;;;27.35;16.52;;;9.60;49.80;;;;;;4999023;28;20403;-77
2022/04/29 02:14:28;;;;;;;30.48;17.52;;;9.50;51.00;;;;;;5000172;28;20441;-78
2022/04/29 02:16:55;;;;;;;33.90;17.85;;;9.60;51.40;;;;;;4992216;28;20399;-78
2022/04/29 02:19:22;;;;;;;32.67;18.48;;;9.70;50.60;;;;;;4991665;28;20420;-77
2022/04/29 02:21:48;;;;;;;33.58;17.42;;;9.60;50.40;;;;;;4989909;28;20406;-77
2022/04/29 02:24:14;;;;;;;30.42;17.13;;;9.70;50.50;;;;;;4990636;28;20494;-80
2022/04/29 02:26:39;;;;;;;31.40;17.70;;;9.60;51.30;;;;;;4987280;28;20483;-77
2022/04/29 02:29:07;;;;;;;38.03;19.07;;;9.40;52.30;;;;;;4991269;28;20493;-77
2022/04/29 02:31:33;;;;;;;32.42;17.73;;;9.10;54.90;;;;;;4982361;28;20399;-77
2022/04/29 02:33:58;;;;;;;28.80;17.50;;;9.30;55.10;;;;;;4991613;28;20450;-77
2022/04/29 02:36:24;;;;;;;35.00;18.50;;;9.50;54.40;;;;;;4991068;28;20775;-78
2022/04/29 02:38:49;;;;;;;32.60;18.33;;;9.60;52.70;;;;;;4991762;28;20413;-77
2022/04/29 02:41:15;;;;;;;29.60;18.40;;;9.70;52.00;;;;;;4990842;28;20410;-79
2022/04/29 02:43:41;;;;;;;31.70;18.77;;;9.60;52.20;;;;;;4993320;28;20402;-78
2022/04/29 02:46:07;;;;;;;38.13;20.67;;;9.40;53.60;;;;;;4996724;28;20867;-80
2022/04/29 02:48:33;;;;;;;34.15;19.60;;;9.30;55.80;;;;;;4995098;28;20414;-77
2022/04/29 02:50:59;;;;;;;33.30;19.53;;;9.40;55.90;;;;;;4990936;28;20436;-78
2022/04/29 02:53:25;;;;;;;31.08;19.33;;;9.40;55.20;;;;;;4995150;28;20418;-77
2022/04/29 02:55:50;;;;;;;36.65;20.23;;;9.30;56.30;;;;;;4990326;28;20421;-78
2022/04/29 02:58:16;;;;;;;40.22;21.13;;;9.20;57.60;;;;;;4996891;28;20398;-77
2022/04/29 03:00:41;;;;;;;33.05;19.85;;;9.40;56.60;;;;;;4997199;28;20425;-76
2022/04/29 03:03:07;;;;;;;39.00;20.77;;;9.60;54.70;;;;;;5000445;28;20413;-77
2022/04/29 03:05:33;;;;;;;40.75;22.08;;;9.50;54.60;;;;;;5001144;28;20421;-77
2022/04/29 03:07:59;;;;;;;35.40;20.73;;;9.50;55.90;;;;;;4997419;28;20494;-78
2022/04/29 03:10:25;;;;;;;35.58;21.52;;;9.50;56.10;;;;;;5007068;28;20398;-78
2022/04/29 03:12:51;;;;;;;39.17;21.20;;;9.50;56.50;;;;;;4994388;28;20438;-78
2022/04/29 03:15:18;;;;;;;43.35;22.20;;;9.50;56.50;;;;;;4993080;28;20441;-77
2022/04/29 03:20:30;;;;;;;35.33;21.45;;;9.80;54.00;;;;;;4999296;28;20540;-79
2022/04/29 03:22:56;;;;;;;36.03;21.73;;;9.70;53.80;;;;;;4998103;28;20402;-77
2022/04/29 03:25:21;;;;;;;42.15;22.95;;;9.70;54.80;;;;;;4996190;28;20406;-78
2022/04/29 03:27:47;;;;;;;38.97;21.90;;;9.70;54.20;;;;;;4996170;28;20413;-77
2022/04/29 03:30:13;;;;;;;38.80;22.23;;;9.70;54.60;;;;;;4989848;28;20907;-78
2022/04/29 03:32:38;;;;;;;40.17;21.90;;;9.60;54.60;;;;;;4994398;28;20787;-78
2022/04/29 03:35:04;;;;;;;41.92;23.42;;;9.60;55.50;;;;;;4997464;28;20414;-78
2022/04/29 03:37:31;;;;;;;40.30;23.35;;;9.60;55.10;;;;;;4991262;28;20421;-78
2022/04/29 03:39:56;;;;;;;37.15;22.20;;;9.50;55.60;;;;;;4984768;28;20420;-77
2022/04/29 03:42:22;;;;;;;41.67;24.20;;;9.50;56.40;;;;;;4987620;28;20415;-77
2022/04/29 03:44:48;;;;;;;43.30;23.75;;;9.50;56.90;;;;;;4993652;28;20400;-76
2022/04/29 03:47:14;;;;;;;43.20;23.70;;;9.50;56.80;;;;;;4995647;28;20410;-78
2022/04/29 03:49:39;;;;;;;39.38;22.80;;;9.50;55.90;;;;;;4989888;28;20419;-78
2022/04/29 03:52:05;;;;;;;39.28;23.33;;;9.50;56.20;;;;;;4996431;28;20406;-78
2022/04/29 03:54:32;;;;;;;36.60;23.10;;;9.50;55.60;;;;;;4997451;28;20477;-78
2022/04/29 03:56:58;;;;;;;39.70;23.35;;;9.40;56.90;;;;;;4993164;28;20770;-77
2022/04/29 03:59:23;;;;;;;41.17;23.42;;;9.40;57.40;;;;;;4993776;28;20482;-78
2022/04/29 04:01:49;;;;;;;36.35;22.20;;;9.40;56.90;;;;;;4995535;28;20457;-78
2022/04/29 04:04:15;;;;;;;40.22;23.15;;;9.40;57.00;;;;;;4994930;28;20763;-77
2022/04/29 04:06:49;;;;;;;38.35;23.90;;;9.20;58.90;;;;;;4993940;28;20418;-79
2022/04/29 04:09:19;;;;;;;41.38;24.98;;;9.10;60.90;;;;;;4997688;28;20423;-78
2022/04/29 04:11:44;;;;;;;38.13;23.75;;;9.20;59.90;;;;;;4989538;28;20409;-77
2022/04/29 04:14:10;;;;;;;39.07;23.50;;;9.20;57.60;;;;;;4993929;28;20441;-77
2022/04/29 04:16:36;;;;;;;41.37;25.03;;;9.30;58.10;;;;;;4995922;28;20410;-77
2022/04/29 04:19:03;;;;;;;50.00;25.15;;;9.30;58.30;;;;;;4996083;28;20412;-76
2022/04/29 04:21:29;;;;;;;40.17;23.80;;;9.30;56.90;;;;;;4997948;28;20420;-79
2022/04/29 04:23:55;;;;;;;41.90;23.08;;;9.30;57.00;;;;;;4996988;28;20759;-78
2022/04/29 04:26:21;;;;;;;40.25;24.58;;;9.20;57.50;;;;;;4995163;28;20505;-77
2022/04/29 04:28:46;;;;;;;43.50;24.42;;;9.30;57.20;;;;;;5003690;23;20449;-73
2022/04/29 04:31:12;;;;;;;45.20;24.60;;;9.30;57.50;;;;;;4994133;28;20501;-72
2022/04/29 04:33:38;;;;;;;48.60;25.00;;;9.20;58.30;;;;;;4991064;28;20414;-73
2022/04/29 04:36:04;;;;;;;44.73;23.93;;;9.20;57.70;;;;;;4991925;28;20814;-73
2022/04/29 04:38:31;;;;;;;43.67;24.63;;;9.20;58.10;;;;;;4984054;28;21014;-73
2022/04/29 04:40:58;;;;;;;41.50;23.88;;;9.20;58.80;;;;;;4973017;28;20424;-73
2022/04/29 04:43:24;;;;;;;42.80;24.33;;;9.30;58.50;;;;;;4976813;28;20412;-73
2022/04/29 04:45:53;;;;;;;44.13;23.92;;;9.40;56.60;;;;;;4976195;28;20402;-73
2022/04/29 04:48:19;;;;;;;38.10;23.52;;;9.30;56.20;;;;;;4974949;28;20493;-73
2022/04/29 04:50:45;;;;;;;41.50;24.10;;;9.40;56.30;;;;;;4973180;28;20470;-74
2022/04/29 04:53:11;;;;;;;38.05;22.95;;;9.40;56.90;;;;;;4975368;28;20503;-73
2022/04/29 04:55:37;;;;;;;55.53;24.05;;;9.30;56.10;;;;;;4975556;28;20404;-74
2022/04/29 04:58:03;;;;;;;40.30;23.25;;;9.30;56.20;;;;;;4973460;28;20408;-73
2022/04/29 05:00:29;;;;;;;42.35;23.00;;;9.30;56.50;;;;;;4981954;28;20419;-73
2022/04/29 05:02:55;;;;;;;44.80;24.20;;;9.30;57.20;;;;;;4983986;28;20864;-74
2022/04/29 05:05:20;;;;;;;45.38;22.60;;;9.40;56.30;;;;;;4991841;28;20413;-73
2022/04/29 05:07:46;;;;;;;42.00;22.33;;;9.50;55.40;;;;;;4988797;28;20410;-76
2022/04/29 05:10:12;;;;;;;40.63;22.90;;;9.50;57.90;;;;;;4986448;28;20482;-74
2022/04/29 05:12:42;;;;;;;42.70;22.25;;;9.60;54.80;;;;;;4987670;28;20404;-74
2022/04/29 05:15:09;;;;;;;37.35;23.05;;;9.60;53.60;;;;;;4985790;28;20473;-75
2022/04/29 05:17:35;;;;;;;43.60;22.83;;;9.60;54.30;;;;;;4978474;28;20412;-76
2022/04/29 05:20:02;;;;;;;40.38;21.60;;;9.60;54.30;;;;;;4972260;28;20462;-74
2022/04/29 05:22:31;;;;;;;37.40;22.42;;;9.70;54.20;;;;;;4974014;28;20419;-75
2022/04/29 05:24:57;;;;;;;37.42;22.40;;;9.80;52.60;;;;;;4979412;28;20891;-75
2022/04/29 05:27:23;;;;;;;32.97;21.25;;;9.90;53.60;;;;;;4967054;28;20446;-75
2022/04/29 05:29:49;;;;;;;42.17;21.83;;;10.20;51.10;;;;;;4970983;28;20423;-74
2022/04/29 05:32:16;;;;;;;39.65;22.27;;;10.30;48.80;;;;;;4971049;28;20650;-76
2022/04/29 05:34:42;;;;;;;40.80;21.60;;;10.50;47.60;;;;;;4978604;28;20416;-74
2022/04/29 05:37:08;;;;;;;34.63;21.20;;;10.60;46.30;;;;;;4980102;28;20408;-74
2022/04/29 05:42:23;;;;;;;43.28;22.38;;;10.80;45.00;;;;;;4965004;28;20403;-75
2022/04/29 05:44:49;;;;;;;40.28;22.23;;;10.90;44.50;;;;;;4973934;28;20773;-74
2022/04/29 05:47:15;;;;;;;37.27;20.63;;;11.10;42.60;;;;;;4982499;28;20500;-76
2022/04/29 05:49:41;;;;;;;35.53;19.60;;;11.30;40.70;;;;;;4973655;28;20956;-76
2022/04/29 05:52:08;;;;;;;36.97;20.92;;;11.30;40.40;;;;;;4969534;28;20408;-75
2022/04/29 05:54:34;;;;;;;37.08;20.70;;;11.40;39.70;;;;;;4975683;28;21542;-74
2022/04/29 05:57:01;;;;;;;35.63;20.20;;;11.50;39.80;;;;;;4970624;28;20403;-75
2022/04/29 05:59:27;;;;;;;38.03;21.88;;;11.60;39.00;;;;;;4969109;28;20448;-74
2022/04/29 06:01:54;;;;;;;36.90;20.05;;;11.70;38.60;;;;;;4973562;28;20402;-74
2022/04/29 06:04:20;;;;;;;39.58;22.30;;;11.70;38.20;;;;;;4969737;28;20739;-77
2022/04/29 06:06:46;;;;;;;37.80;21.50;;;11.60;39.10;;;;;;4971418;28;20497;-75
2022/04/29 06:09:12;;;;;;;36.55;20.52;;;11.50;39.60;;;;;;4978519;28;20402;-76
2022/04/29 06:11:38;;;;;;;35.83;20.00;;;11.30;39.80;;;;;;4977110;28;20922;-74
2022/04/29 06:14:03;;;;;;;43.70;22.30;;;11.20;41.40;;;;;;4974969;28;20408;-74
2022/04/29 06:16:29;;;;;;;32.30;20.10;;;11.30;41.50;;;;;;4979553;28;20412;-74
2022/04/29 06:18:54;;;;;;;46.60;21.33;;;11.30;40.50;;;;;;4974546;28;20459;-74
2022/04/29 06:21:20;;;;;;;32.23;20.20;;;11.40;40.80;;;;;;4977830;28;20550;-74
2022/04/29 06:23:46;;;;;;;34.80;20.90;;;11.40;39.90;;;;;;4974187;28;20428;-74
2022/04/29 06:26:12;;;;;;;31.88;20.27;;;11.60;39.90;;;;;;4978026;28;20415;-75
2022/04/29 06:28:39;;;;;;;38.35;19.88;;;11.60;39.60;;;;;;4976220;28;20412;-76
2022/04/29 06:31:05;;;;;;;31.45;19.58;;;11.70;38.30;;;;;;4980900;28;20417;-77
2022/04/29 06:33:31;;;;;;;34.72;19.20;;;11.60;39.10;;;;;;4971806;28;20888;-75
2022/04/29 06:35:57;;;;;;;38.38;19.52;;;11.70;38.80;;;;;;4973408;28;20427;-75
2022/04/29 06:38:23;;;;;;;30.50;17.80;;;11.70;38.30;;;;;;4968327;28;20424;-75
2022/04/29 06:40:50;;;;;;;38.13;18.88;;;11.60;38.30;;;;;;4968025;28;20485;-75
2022/04/29 06:43:16;;;;;;;32.92;18.33;;;11.60;38.60;;;;;;4972558;28;20416;-75
2022/04/29 06:45:43;;;;;;;33.83;19.20;;;11.60;38.80;;;;;;4974071;28;20419;-75
2022/04/29 06:48:08;;;;;;;39.08;19.92;;;11.60;39.50;;;;;;4962180;28;20421;-76
2022/04/29 06:50:34;;;;;;;37.53;19.40;;;11.90;38.40;;;;;;4984375;28;20416;-76
2022/04/29 06:53:00;;;;;;;32.80;18.60;;;12.10;38.20;;;;;;4973795;28;20411;-75
2022/04/29 06:55:26;;;;;;;39.40;19.00;;;12.40;36.10;;;;;;4974376;28;20424;-75
2022/04/29 06:57:52;;;;;;;33.73;18.43;;;12.60;35.20;;;;;;4976713;28;20477;-75
2022/04/29 07:00:19;;;;;;;31.10;18.90;;;12.80;33.90;;;;;;4965656;28;20419;-76
2022/04/29 07:02:45;;;;;;;33.72;19.02;;;12.90;33.50;;;;;;4980842;28;20421;-76
2022/04/29 07:05:11;;;;;;;37.20;18.10;;;13.10;32.80;;;;;;4968394;28;20419;-77
2022/04/29 07:07:37;;;;;;;34.75;17.85;;;13.20;32.60;;;;;;4971317;28;20404;-76
2022/04/29 07:10:05;;;;;;;33.47;17.98;;;13.20;31.00;;;;;;4970038;28;20419;-76
2022/04/29 07:12:34;;;;;;;29.95;17.48;;;13.30;31.40;;;;;;4970080;28;20418;-77
2022/04/29 07:15:00;;;;;;;34.08;18.58;;;13.40;30.70;;;;;;4975297;28;20979;-76
2022/04/29 07:17:25;;;;;;;35.38;18.83;;;13.50;30.60;;;;;;4977077;28;20422;-75
2022/04/29 07:19:52;;;;;;;39.15;19.05;;;13.70;30.50;;;;;;4974903;28;20408;-76
2022/04/29 07:22:18;;;;;;;27.83;17.90;;;13.90;29.50;;;;;;4988591;28;20408;-77
2022/04/29 07:24:44;;;;;;;37.67;17.85;;;14.10;29.30;;;;;;4983520;28;20422;-75
2022/04/29 07:27:12;;;;;;;24.53;16.73;;;14.50;28.40;;;;;;4985598;28;20435;-74
2022/04/29 07:29:37;;;;;;;37.90;18.30;;;14.70;27.20;;;;;;4984532;28;20415;-74
2022/04/29 07:32:03;;;;;;;28.90;17.70;;;14.70;26.40;;;;;;4983732;28;20412;-74
2022/04/29 07:42:41;;;;;;;30.30;17.07;;;14.00;28.30;;;;;;4984013;28;20387;-74
2022/04/29 07:45:07;;;;;;;36.63;18.27;;;14.10;28.30;;;;;;4983901;28;20401;-74
2022/04/29 07:47:36;;;;;;;30.15;17.05;;;14.20;28.10;;;;;;4982646;28;20526;-73
2022/04/29 07:50:08;;;;;;;29.63;17.45;;;14.40;28.30;;;;;;4972312;28;20425;-75
2022/04/29 07:52:34;;;;;;;28.67;17.77;;;14.30;26.80;;;;;;4955904;28;20394;-74
2022/04/29 07:55:00;;;;;;;28.92;16.88;;;14.20;27.40;;;;;;4956452;28;20421;-74
2022/04/29 07:57:26;;;;;;;29.13;18.25;;;14.30;27.30;;;;;;4966506;28;20787;-74
2022/04/29 07:59:52;;;;;;;27.92;16.80;;;14.40;27.60;;;;;;4968250;28;20413;-74
2022/04/29 08:02:17;;;;;;;28.75;16.65;;;14.50;26.90;;;;;;4971069;28;20538;-74
2022/04/29 08:04:43;;;;;;;30.63;17.27;;;14.50;26.10;;;;;;4966064;28;20395;-74
2022/04/29 08:07:11;;;;;;;28.80;16.70;;;14.50;25.40;;;;;;4974281;28;20433;-74
2022/04/29 08:09:37;;;;;;;28.05;17.05;;;14.40;25.90;;;;;;4973739;28;20420;-75
2022/04/29 08:12:04;;;;;;;32.78;15.70;;;14.40;26.80;;;;;;4973166;28;20423;-74
2022/04/29 08:14:31;;;;;;;33.53;17.10;;;14.50;26.60;;;;;;4963663;28;20417;-74
2022/04/29 08:16:57;;;;;;;24.70;15.27;;;14.80;25.60;;;;;;4971018;28;20412;-74
2022/04/29 08:19:23;;;;;;;33.10;16.48;;;14.90;24.60;;;;;;4966198;28;20891;-74
2022/04/29 08:21:49;;;;;;;27.05;15.50;;;15.30;23.30;;;;;;4972613;28;20416;-74
2022/04/29 08:24:15;;;;;;;26.77;16.58;;;15.40;22.40;;;;;;4972289;28;20865;-75
2022/04/29 08:26:41;;;;;;;24.83;14.90;;;15.40;23.30;;;;;;4966367;28;20406;-75
2022/04/29 08:29:06;;;;;;;24.90;14.52;;;15.60;20.70;;;;;;4976382;28;20408;-74
2022/04/29 08:31:32;;;;;;;29.73;15.70;;;15.40;21.40;;;;;;4956188;28;20962;-75
2022/04/29 08:33:58;;;;;;;27.23;15.65;;;15.40;22.40;;;;;;4963438;28;20432;-75
2022/04/29 08:36:24;;;;;;;33.75;16.45;;;15.50;21.70;;;;;;4975999;28;20889;-75
2022/04/29 08:38:51;;;;;;;30.00;16.20;;;15.60;21.20;;;;;;4955460;29;20767;-75
2022/04/29 08:41:19;;;;;;;26.00;16.25;;;15.70;21.70;;;;;;4958183;28;20412;-74
2022/04/29 08:43:47;;;;;;;29.08;16.05;;;15.70;21.70;;;;;;4968006;28;20476;-74
2022/04/29 08:46:13;;;;;;;27.67;15.38;;;15.60;21.20;;;;;;4976298;28;20707;-74
2022/04/29 08:48:41;;;;;;;26.00;15.95;;;15.60;22.30;;;;;;4974786;28;20625;-74
2022/04/29 08:51:07;;;;;;;32.25;15.63;;;15.40;23.10;;;;;;4981620;28;20857;-74
2022/04/29 08:53:34;;;;;;;30.45;16.27;;;15.20;22.80;;;;;;4973266;28;20424;-73
2022/04/29 08:58:46;;;;;;;35.10;16.02;;;15.40;23.20;;;;;;4966736;28;20719;-73
2022/04/29 09:01:16;;;;;;;35.33;16.60;;;15.10;23.10;;;;;;4965198;28;20420;-74
2022/04/29 09:03:45;;;;;;;25.48;15.05;;;14.90;24.00;;;;;;4975331;28;20428;-74
2022/04/29 09:06:12;;;;;;;30.25;15.80;;;15.20;23.60;;;;;;4959762;28;20420;-73
2022/04/29 09:08:42;;;;;;;28.20;15.38;;;15.40;22.90;;;;;;4967772;28;20394;-73
2022/04/29 09:11:09;;;;;;;26.20;14.80;;;15.60;22.10;;;;;;4953293;29;20799;-73
2022/04/29 09:13:39;;;;;;;27.23;15.50;;;15.40;22.00;;;;;;4958567;28;20413;-73
2022/04/29 09:16:12;;;;;;;28.35;16.55;;;15.50;22.00;;;;;;4959202;28;20397;-73
2022/04/29 09:18:43;;;;;;;24.33;15.32;;;15.50;21.90;;;;;;4968973;28;20487;-73
2022/04/29 09:21:10;;;;;;;32.55;15.70;;;16.00;21.20;;;;;;4973741;28;20410;-75
2022/04/29 09:23:38;;;;;;;23.52;15.38;;;16.30;20.30;;;;;;4970486;28;20467;-75
2022/04/29 09:26:08;;;;;;;33.25;15.85;;;16.70;19.80;;;;;;4968447;28;20388;-77
2022/04/29 09:28:35;;;;;;;26.13;15.30;;;16.90;19.10;;;;;;4970029;28;20544;-74
2022/04/29 09:31:02;;;;;;;24.45;15.85;;;16.70;19.30;;;;;;4963688;28;20420;-75
2022/04/29 09:33:29;;;;;;;37.30;16.50;;;16.70;19.10;;;;;;4959434;28;20414;-76
2022/04/29 09:35:56;;;;;;;33.43;15.10;;;16.70;19.50;;;;;;4953457;28;20393;-74
2022/04/29 09:41:07;;;;;;;29.80;14.20;;;16.20;20.00;;;;;;4963979;28;20478;-75
2022/04/29 09:43:42;;;;;;;26.70;15.90;;;15.80;20.40;;;;;;4964060;28;20426;-76
2022/04/29 09:46:12;;;;;;;27.13;15.27;;;15.80;22.00;;;;;;4969295;28;20447;-75
2022/04/29 09:49:00;;;;;;;32.15;15.90;;;16.20;20.20;;;;;;4962686;28;20875;-76
2022/04/29 09:51:49;;;;;;;27.45;14.90;;;16.50;19.70;;;;;;4960927;28;20424;-76
2022/04/29 09:54:26;;;;;;;29.60;15.77;;;15.80;21.30;;;;;;4960509;28;20400;-74
2022/04/29 09:57:04;;;;;;;28.88;14.70;;;16.00;21.40;;;;;;4965525;28;20484;-75
2022/04/29 09:59:42;;;;;;;28.50;14.80;;;16.30;20.60;;;;;;4963568;28;20444;-75
2022/04/29 10:02:13;;;;;;;29.77;15.88;;;16.60;20.00;;;;;;4968792;28;20439;-77
2022/04/29 10:04:44;;;;;;;27.75;15.15;;;16.30;20.00;;;;;;4965005;28;20402;-75
2022/04/29 10:07:16;;;;;;;31.60;15.98;;;16.30;20.10;;;;;;4963922;28;20398;-76
2022/04/29 10:09:50;;;;;;;30.27;15.60;;;16.40;20.30;;;;;;4966384;28;20764;-76
2022/04/29 10:12:21;;;;;;;28.75;15.30;;;16.60;19.60;;;;;;4967905;28;20439;-76
2022/04/29 10:14:48;;;;;;;30.23;15.83;;;16.70;20.10;;;;;;4966470;28;20417;-75
2022/04/29 10:22:52;;;;;;;27.38;16.27;;;16.30;20.40;;;;;;4963750;28;20409;-76
2022/04/29 10:25:25;;;;;;;35.67;16.58;;;16.70;20.40;;;;;;4965635;28;20491;-77
2022/04/29 10:27:51;;;;;;;34.30;17.02;;;17.00;19.40;;;;;;4970555;28;20415;-76
2022/04/29 10:30:27;;;;;;;30.38;15.60;;;17.20;19.00;;;;;;4962060;28;20392;-75
2022/04/29 10:33:08;;;;;;;27.50;16.40;;;17.00;18.30;;;;;;4963921;28;20450;-76
2022/04/29 10:35:40;;;;;;;28.23;16.70;;;17.00;18.40;;;;;;4967741;28;20415;-76
2022/04/29 10:38:15;;;;;;;29.95;15.35;;;17.00;18.70;;;;;;4969841;28;21111;-76
2022/04/29 10:40:41;;;;;;;29.02;16.40;;;17.10;18.50;;;;;;4968097;28;20486;-77
2022/04/29 10:43:09;;;;;;;27.77;16.40;;;17.10;18.30;;;;;;4965234;28;20873;-75
2022/04/29 10:45:36;;;;;;;28.75;16.75;;;16.90;18.30;;;;;;4960013;28;20415;-77
2022/04/29 10:48:31;;;;;;;33.97;16.42;;;16.80;18.30;;;;;;4963184;28;20420;-76
2022/04/29 10:50:57;;;;;;;26.48;15.00;;;16.80;18.60;;;;;;4969051;28;20413;-77
2022/04/29 10:53:24;;;;;;;39.17;18.40;;;16.40;19.50;;;;;;4971815;28;20412;-74
2022/04/29 10:55:50;;;;;;;31.00;15.82;;;16.60;19.30;;;;;;4967857;28;20425;-75
2022/04/29 10:58:21;;;;;;;33.60;16.77;;;16.60;19.00;;;;;;4972250;28;20414;-76
2022/04/29 11:01:15;;;;;;;24.40;15.32;;;16.80;19.10;;;;;;4952161;28;20401;-75
2022/04/29 11:03:43;;;;;;;26.98;14.95;;;17.20;18.40;;;;;;4966754;28;20937;-77
2022/04/29 11:06:11;;;;;;;29.30;15.00;;;17.60;17.80;;;;;;4976361;28;20422;-76
2022/04/29 11:08:37;;;;;;;25.17;14.68;;;17.70;17.90;;;;;;4975655;28;20394;-76
2022/04/29 11:11:04;;;;;;;26.27;14.30;;;17.70;16.60;;;;;;4972991;28;20393;-75
2022/04/29 11:13:34;;;;;;;32.38;14.20;;;17.70;17.60;;;;;;4981476;28;20447;-74
2022/04/29 11:16:12;;;;;;;34.70;13.68;;;17.90;16.60;;;;;;4978305;28;20504;-76
2022/04/29 11:18:40;;;;;;;27.35;13.68;;;18.20;16.20;;;;;;4976951;28;20872;-75
2022/04/29 11:26:48;;;;;;;26.52;13.40;;;17.60;16.70;;;;;;4964316;28;20431;-76
2022/04/29 11:29:14;;;;;;;24.75;12.73;;;17.60;16.80;;;;;;4966094;28;20505;-76
2022/04/29 11:31:41;;;;;;;29.73;14.00;;;17.60;16.80;;;;;;4968293;28;20744;-76
2022/04/29 11:34:16;;;;;;;25.80;13.65;;;17.50;17.40;;;;;;4955174;28;20410;-77
2022/04/29 11:36:43;;;;;;;25.35;14.05;;;17.80;17.00;;;;;;4977303;28;20411;-76
2022/04/29 11:39:19;;;;;;;25.50;12.50;;;18.20;16.60;;;;;;4971534;28;20407;-75
2022/04/29 11:41:58;;;;;;;25.02;13.77;;;18.40;15.00;;;;;;4970124;28;20756;-75
2022/04/29 11:44:44;;;;;;;24.38;12.60;;;18.70;15.00;;;;;;4974339;28;20744;-74
2022/04/29 11:47:09;;;;;;;23.13;13.00;;;18.70;13.90;;;;;;4974507;28;20416;-74
2022/04/29 11:49:35;;;;;;;23.93;12.63;;;18.80;15.20;;;;;;4964342;28;20406;-76
2022/04/29 11:52:17;;;;;;;20.33;11.80;;;19.20;14.80;;;;;;4977322;28;20407;-74
2022/04/29 11:54:54;;;;;;;25.60;12.17;;;19.10;13.70;;;;;;4965364;28;20416;-76
2022/04/29 11:57:25;;;;;;;21.05;12.25;;;19.10;13.50;;;;;;4968163;28;20408;-75
2022/04/29 11:59:51;;;;;;;23.77;11.15;;;18.80;13.90;;;;;;4964246;28;20394;-75
2022/04/29 12:02:19;;;;;;;19.13;11.10;;;18.90;13.40;;;;;;4972393;28;20408;-74
2022/04/29 12:05:05;;;;;;;25.90;12.25;;;18.40;14.50;;;;;;4971890;28;21012;-76
2022/04/29 12:07:46;;;;;;;24.45;11.23;;;18.30;15.50;;;;;;4973253;28;20437;-75
2022/04/29 12:10:16;;;;;;;27.13;11.85;;;18.40;15.10;;;;;;4962698;28;20404;-75
2022/04/29 12:12:41;;;;;;;25.55;11.57;;;18.20;15.20;;;;;;4969127;28;20446;-74
2022/04/29 12:15:09;;;;;;;24.30;11.70;;;18.40;15.60;;;;;;4969369;28;20560;-74
2022/04/29 12:17:40;;;;;;;22.67;11.70;;;18.70;14.80;;;;;;4972627;28;20447;-74
2022/04/29 12:20:08;;;;;;;20.52;11.30;;;18.40;14.80;;;;;;4972315;28;20423;-74
2022/04/29 12:22:36;;;;;;;24.65;11.20;;;18.40;15.20;;;;;;4972293;28;20409;-74
2022/04/29 12:25:22;;;;;;;19.17;10.18;;;18.60;15.00;;;;;;4969902;28;20512;-76
2022/04/29 12:28:06;;;;;;;21.42;11.13;;;18.40;14.90;;;;;;4956336;28;20410;-75
2022/04/29 12:36:07;;;;;;;22.30;11.35;;;18.20;15.00;;;;;;4971444;28;20915;-75
2022/04/29 12:38:37;;;;;;;19.60;11.63;;;18.10;15.20;;;;;;4974512;28;20424;-75
2022/04/29 12:41:20;;;;;;;19.00;10.90;;;18.20;15.10;;;;;;4976580;28;20490;-75
2022/04/29 12:43:46;;;;;;;29.60;11.67;;;18.30;14.50;;;;;;4973462;28;20420;-76
2022/04/29 12:46:21;;;;;;;23.70;10.40;;;18.50;14.00;;;;;;4980954;28;20475;-74
2022/04/29 12:48:50;;;;;;;27.45;11.40;;;18.60;14.60;;;;;;4983110;28;20458;-75
2022/04/29 12:51:33;;;;;;;20.30;10.75;;;18.70;14.20;;;;;;4984507;28;20416;-75
2022/04/29 12:54:05;;;;;;;23.92;11.30;;;18.80;13.70;;;;;;4973677;28;20490;-76
2022/04/29 12:56:33;;;;;;;20.58;11.10;;;18.80;13.20;;;;;;4974708;28;20948;-76
2022/04/29 12:59:00;;;;;;;21.13;10.13;;;18.30;14.00;;;;;;4968622;28;20747;-76
2022/04/29 13:01:35;;;;;;;21.15;11.57;;;18.20;15.00;;;;;;4973351;28;20422;-76
2022/04/29 13:04:00;;;;;;;21.60;11.40;;;18.20;15.50;;;;;;4978260;28;20771;-77
2022/04/29 13:06:26;;;;;;;19.03;11.63;;;17.70;14.70;;;;;;4984423;28;20422;-76
2022/04/29 13:08:56;;;;;;;19.60;11.50;;;17.80;15.30;;;;;;4974045;28;20434;-75
2022/04/29 13:11:23;;;;;;;24.27;11.95;;;17.70;15.60;;;;;;4985190;28;20622;-76
2022/04/29 13:13:51;;;;;;;25.23;11.18;;;17.70;15.80;;;;;;4982246;28;20466;-77